JBE307U ZGHA-ZGHA
Flight info
| Callsign | JBE307U |
|---|---|
| Flight time | 0h 9m |
| Altitude | 2000 |
| Route | LOCAL |
| Aircraft | BE58/L-SBDE1E2E3FGHIJ1J4J5J7M3RWXYZ/LB1V1D1 |
Departure
| Time | 2026-05-07 17:13 |
|---|---|
| Airport | Changsha Huanghua International Airport (ZGHA) |
Arrival
| Time | 2026-05-07 17:23 |
|---|---|
| Airport | Changsha Huanghua International Airport (ZGHA) |
| Time | Latitude | Longitude | Altitude | Speed | Heading |
|---|---|---|---|---|---|
| 2026-05-07 17:12 | 28.20000 | 113.21867 | 353 ft | 135 kts | 356° |
| 2026-05-07 17:12 | 28.20986 | 113.21782 | 439 ft | 146 kts | 355° |
| 2026-05-07 17:13 | 28.21971 | 113.21522 | 581 ft | 149 kts | 324° |
| 2026-05-07 17:13 | 28.22380 | 113.20458 | 737 ft | 149 kts | 277° |
| 2026-05-07 17:13 | 28.22433 | 113.19299 | 894 ft | 150 kts | 272° |
| 2026-05-07 17:13 | 28.22472 | 113.18111 | 1005 ft | 150 kts | 272° |
| 2026-05-07 17:14 | 28.22367 | 113.16974 | 1105 ft | 143 kts | 243° |
| 2026-05-07 17:14 | 28.21618 | 113.16274 | 1146 ft | 142 kts | 198° |
| 2026-05-07 17:14 | 28.20646 | 113.16235 | 1206 ft | 140 kts | 175° |
| 2026-05-07 17:14 | 28.19672 | 113.16334 | 1276 ft | 139 kts | 173° |
| 2026-05-07 17:15 | 28.19530 | 113.16354 | 1286 ft | 139 kts | 173° |
| 2026-05-07 17:17 | 28.18864 | 113.16439 | 1329 ft | 138 kts | 174° |
| 2026-05-07 17:17 | 28.17901 | 113.16541 | 1370 ft | 139 kts | 174° |
| 2026-05-07 17:18 | 28.16931 | 113.16659 | 1290 ft | 144 kts | 173° |
| 2026-05-07 17:18 | 28.15917 | 113.16788 | 1185 ft | 148 kts | 173° |
| 2026-05-07 17:18 | 28.14878 | 113.16927 | 1117 ft | 149 kts | 173° |
| 2026-05-07 17:18 | 28.13868 | 113.17067 | 1029 ft | 141 kts | 172° |
| 2026-05-07 17:19 | 28.13005 | 113.17499 | 909 ft | 137 kts | 136° |
| 2026-05-07 17:19 | 28.12510 | 113.18407 | 767 ft | 135 kts | 105° |
| 2026-05-07 17:19 | 28.12500 | 113.19454 | 598 ft | 135 kts | 86° |
| 2026-05-07 17:19 | 28.12583 | 113.20493 | 442 ft | 127 kts | 82° |
| 2026-05-07 17:20 | 28.12728 | 113.21443 | 254 ft | 116 kts | 78° |
| 2026-05-07 17:20 | 28.12946 | 113.22267 | 238 ft | 106 kts | 50° |
| 2026-05-07 17:20 | 28.13638 | 113.22443 | 277 ft | 117 kts | 355° |
| 2026-05-07 17:20 | 28.14491 | 113.22368 | 333 ft | 130 kts | 355° |
| 2026-05-07 17:21 | 28.15409 | 113.22208 | 374 ft | 140 kts | 350° |
| 2026-05-07 17:21 | 28.16366 | 113.22084 | 333 ft | 127 kts | 358° |
| 2026-05-07 17:21 | 28.17162 | 113.22031 | 227 ft | 97 kts | 355° |
| 2026-05-07 17:21 | 28.17838 | 113.21983 | 227 ft | 98 kts | 1° |
| 2026-05-07 17:22 | 28.18504 | 113.21984 | 240 ft | 93 kts | 360° |
| 2026-05-07 17:22 | 28.19126 | 113.21973 | 223 ft | 83 kts | 355° |
| 2026-05-07 17:22 | 28.19608 | 113.21935 | 223 ft | 52 kts | 357° |
| 2026-05-07 17:23 | 28.19795 | 113.21970 | 223 ft | 10 kts | 13° |
| 2026-05-07 17:23 | 28.19856 | 113.21995 | 223 ft | 8 kts | 24° |
| 2026-05-07 17:23 | 28.20004 | 113.22070 | 223 ft | 49 kts | 24° |
| 2026-05-07 17:24 | 28.20079 | 113.22041 | 223 ft | 5 kts | 253° |
| 2026-05-07 17:24 | 28.20074 | 113.22011 | 223 ft | 3 kts | 266° |
| 2026-05-07 17:24 | 28.20073 | 113.21895 | 223 ft | 22 kts | 277° |
| 2026-05-07 17:24 | 28.20060 | 113.21698 | 223 ft | 24 kts | 266° |
| 2026-05-07 17:25 | 28.20051 | 113.21540 | 223 ft | 16 kts | 261° |
| 2026-05-07 17:25 | 28.20039 | 113.21478 | 223 ft | 7 kts | 214° |
| 2026-05-07 17:25 | 28.19992 | 113.21478 | 223 ft | 7 kts | 177° |
| 2026-05-07 17:25 | 28.19975 | 113.21478 | 223 ft | 0 kts | 177° |